ADDS METAR Data INFO
IDs: Format: Raw Decoded Include TAF

Data at: 1523 UTC 18 Jun 2018

PATO 181453Z AUTO 12025G56KT 090V170 1SM +RA OVC034 12/09 A2971 RMK AO2 PK WND 08060/1403 SLP062 P0048 60104 T01220094 56039 TSNO
PATO 181400Z AUTO 11024G56KT 050V140 1 3/4SM +RA FEW026 OVC037 12/08 A2971 RMK AO2 PK WND 11056/1400 PRESFR P0005 T01220083 TSNO
PATO 181353Z AUTO 10022G53KT 050V120 2SM +RA SCT029 OVC037 12/08 A2974 RMK AO2 PK WND 11063/1331 SLP069 P0029 T01170083 TSNO
PATO 181346Z AUTO 11020G59KT 080V140 2 1/2SM RA FEW029 BKN038 OVC050 12/08 A2975 RMK AO2 PK WND 11063/1331 P0025 T01170083 TSNO
PATO 181253Z AUTO 10020G60KT 030V170 3SM RA SCT027 OVC036 12/08 A2979 RMK AO2 PK WND 10060/1246 SLP087 P0027 T01170078 TSNO
PATO 181241Z AUTO 14024G49KT 090V190 4SM RA BKN029 OVC036 12/08 A2976 RMK AO2 PK WND 10050/1202 PRESFR P0023 T01170078 TSNO
PATO 181153Z AUTO 3SM RA BKN034 OVC045 11/08 A2983 RMK AO2 PK WND 12048/1120 SLP100 P0031 60116 70138 T01110078 10117 20106 58027 TSNO
PATO 181135Z AUTO 11014G38KT 060V130 3SM +RA SCT029 BKN036 OVC050 11/08 A2984 RMK AO2 PK WND 12048/1120 P0022 T01110078 TSNO
PATO 181123Z AUTO 13016G48KT 070V190 2 1/2SM +RA SCT030 BKN040 OVC055 11/08 A2983 RMK AO2 PK WND 12048/1120 PRESFR P0016 T01110078 TSNO
PATO 181116Z AUTO 11015G45KT 070V170 2 1/2SM +RA BKN028 BKN039 OVC050 11/08 A2985 RMK AO2 PK WND 10045/1114 P0012 T01110078 TSNO
PATO 181053Z AUTO 11019G37KT 080V150 4SM RA SCT025 BKN030 OVC055 11/08 A2986 RMK AO2 PK WND 12039/1031 SLP111 P0024 T01060078 TSNO
PATO 180953Z AUTO 11017G31KT 4SM RA OVC030 11/08 A2990 RMK AO2 PK WND 10040/0901 SLP124 P0020 T01110078 TSNO
PATO 180853Z AUTO 10018G40KT 3SM RA SCT027 BKN035 OVC055 11/08 A2991 RMK AO2 PK WND 08043/0802 SLP128 P0016 60041 T01110078 401220100 56008 TSNO
PATO 180753Z AUTO 11018G37KT 080V150 4SM RA SCT026 OVC041 11/08 A2992 RMK AO2 PK WND 13039/0734 SLP130 P0012 T01110078 TSNO
PATO 180714Z AUTO 12018G37KT 4SM -RA FEW025 OVC034 11/08 A2993 RMK AO2 PK WND 11037/0714 P0004 T01110083 TSNO
PATO 180653Z AUTO 11018G38KT 2SM RA SCT027 OVC034 12/08 A2992 RMK AO2 PK WND 12038/0649 SLP133 P0013 T01170083 TSNO
PATO 180640Z AUTO 11016G36KT 070V150 2 1/2SM RA SCT025 OVC034 11/08 A2992 RMK AO2 PK WND 11036/0635 P0010 T01110083 TSNO
PATO 180629Z AUTO 12015G33KT 3SM RA FEW016 SCT025 OVC034 11/08 A2992 RMK AO2 PK WND 11035/0612 P0008 T01110083 TSNO
PATO 180621Z AUTO 11013G35KT 2 1/2SM RA FEW021 SCT027 OVC034 11/08 A2992 RMK AO2 PK WND 11035/0612 P0006 T01110083 TSNO
PATO 180553Z AUTO 13011G43KT 4SM -RA SCT027 BKN040 OVC050 12/08 A2993 RMK AO2 PK WND 11043/0549 SLP136 P0007 60022 T01170078 10122 20100 56023 TSNO
PATO 180535Z AUTO 09021G39KT 070V140 3SM -RA FEW021 SCT026 OVC035 11/08 A2994 RMK AO2 PK WND 12039/0530 P0006 T01110078 TSNO
PATO 180526Z AUTO 11017G37KT 2 1/2SM RA SCT026 BKN035 OVC055 11/08 A2995 RMK AO2 PK WND 11039/0457 P0005 T01060078 TSNO
PATO 180453Z AUTO 12015G35KT 4SM -RA FEW023 BKN039 OVC050 11/08 A2995 RMK AO2 PK WND 12035/0446 SLP142 P0009 T01110083 TSNO
PATO 180353Z AUTO 12014G30KT 3SM -RA SCT025 BKN035 OVC065 11/08 A2997 RMK AO2 PK WND 12030/0352 SLP150 P0006 T01060078 TSNO
PATO 180320Z AUTO 12009G26KT 080V160 2 1/2SM -RA FEW024 BKN040 OVC055 11/08 A3000 RMK AO2 PK WND 10027/0301 P0001 T01110083 TSNO
PATO 180253Z AUTO 11018G33KT 5SM -RA FEW018 SCT025 OVC048 12/08 A3000 RMK AO2 PK WND 12033/0224 SLP159 P0000 60000 T01170078 58011 TSNO
PATO 180153Z AUTO 07013G34KT 6SM -RA FEW018 BKN041 OVC050 12/08 A3002 RMK AO2 PK WND 14034/0148 SLP165 P0000 T01170078 TSNO
PATO 180053Z AUTO 10012G28KT 7SM -RA FEW025 OVC034 12/08 A3003 RMK AO2 PK WND 11028/0046 SLP169 P0000 T01170078 TSNO
PATO 172353Z AUTO 11012G22KT 7SM -RA FEW026 OVC037 12/07 A3003 RMK AO2 RAB03 SLP169 P0000 60000 T01170072 10117 20100 58005 TSNO
PATO 172253Z AUTO 12014G26KT 10SM SCT023 BKN036 OVC044 12/07 A3004 RMK AO2 PK WND 10026/2252 RAE00B36E45 SLP173 P0000 T01170072 TSNO
PATO 172232Z AUTO 13008G23KT 090V160 9SM FEW020 BKN040 OVC049 12/08 A3004 RMK AO2 RAE00 P0000 T01170078 TSNO
PATO 172223Z AUTO 14008G25KT 100V180 7SM FEW020 BKN027 OVC045 11/08 A3005 RMK AO2 RAE00 P0000 T01110078 TSNO
PATO 172153Z AUTO 14009G20KT 110V170 4SM -RA FEW020 SCT029 OVC045 11/08 A3005 RMK AO2 RAE11B51 SLP175 P0000 T01110078 TSNO
PATO 172053Z AUTO 13007G23KT 080V170 6SM -RA FEW023 BKN037 OVC049 11/07 A3005 RMK AO2 PK WND 11031/1956 RAB47 SLP174 P0000 60000 T01110072 53016 TSNO
PATO 171953Z AUTO 12012G26KT 090V180 5SM HZ FEW026 SCT038 OVC045 11/07 A3001 RMK AO2 PK WND 11032/1918 RAE27 SLP163 P0000 T01110072 TSNO
PATO 171853Z AUTO 10014G28KT 5SM -RA FEW022 BKN041 OVC050 11/07 A3001 RMK AO2 PK WND 10035/1817 RAE1758B19 SLP161 P0000 T01110067 TSNO
PATO 171753Z AUTO 09019G31KT 5SM -RA FEW021 OVC055 11/07 A3000 RMK AO2 PK WND 11036/1707 RAB1659 SLP159 P0000 60000 T01110072 10117 20100 53014 TSNO
PATO 171653Z AUTO 10015G31KT 4SM HZ FEW023 OVC045 11/07 A2998 RMK AO2 PK WND 10034/1631 RAE53 SLP151 P0000 T01060067 TSNO
PATO 171553Z AUTO 08011G33KT 050V120 4SM -RA BKN035 BKN049 OVC060 11/07 A2996 RMK AO2 PK WND 11033/1550 SLP145 P0000 T01060072 TSNO
PATO 171453Z AUTO 10014G28KT 6SM -RA SCT024 OVC034 11/07 A2996 RMK AO2 PK WND 11033/1436 RAB29 SLP145 P0000 60000 T01060067 53015 TSNO
PATO 171353Z AUTO 10016G31KT 10SM OVC033 12/06 A2994 RMK AO2 PK WND 09037/1332 RAE04 SLP138 P0000 T01170061 TSNO
PATO 171253Z AUTO 10015G30KT 9SM -RA FEW021 BKN036 OVC044 11/07 A2992 RMK AO2 PK WND 12034/1240 SLP131 P0000 T01060072 TSNO
PATO 171153Z AUTO 10010G28KT 7SM -RA FEW022 OVC036 11/07 A2992 RMK AO2 PK WND 12037/1142 SLP130 P0000 60008 70035 T01060072 10111 20100 53013 TSNO
PATO 171053Z AUTO 08014G35KT 030V100 4SM -RA OVC039 11/07 A2990 RMK AO2 PK WND 11039/1030 SLP126 P0002 T01060072 TSNO
PATO 170953Z AUTO 11018G41KT 4SM -RA FEW020 FEW027 OVC042 11/07 A2989 RMK AO2 PK WND 12046/0905 SLP120 P0002 T01060072 TSNO
PATO 170853Z AUTO 10018G37KT 5SM -RA FEW026 OVC035 11/07 A2988 RMK AO2 PK WND 10039/0758 SLP117 P0002 60004 T01060072 401110078 50009 TSNO
PATO 170805Z AUTO 08017G39KT 050V130 5SM -RA SCT025 OVC035 11/07 A2988 RMK AO2 PK WND 10039/0758 P0000 T01060072 TSNO
PATO 170753Z AUTO 09012G30KT 4SM -RA FEW022 BKN027 OVC033 11/07 A2988 RMK AO2 PK WND 09038/0733 SLP117 P0001 T01060072 TSNO
PATO 170736Z AUTO 09012G38KT 8SM -RA FEW022 BKN027 OVC038 11/07 A2987 RMK AO2 PK WND 09038/0733 P0000 T01110067 TSNO
PATO 170653Z AUTO 10013G32KT 080V140 6SM -RA FEW025 SCT030 OVC042 11/07 A2987 RMK AO2 PK WND 08039/0617 SLP113 P0001 T01110072 TSNO
PATO 170553Z AUTO 09019G33KT 3SM -RA OVC038 11/08 A2985 RMK AO2 PK WND 11033/0549 SLP107 P0000 60006 T01060078 10111 20100 51004 TSNO
PATO 170453Z AUTO 09013G28KT 070V130 9SM -RA FEW017 FEW023 OVC040 11/08 A2984 RMK AO2 PK WND 10039/0429 SLP104 P0002 T01060078 TSNO
PATO 170434Z AUTO 11015G39KT 3SM -RA FEW017 SCT024 OVC038 11/08 A2984 RMK AO2 PK WND 10039/0429 P0001 T01060078 TSNO
PATO 170423Z AUTO 11012G28KT 6SM -RA BKN023 OVC038 11/08 A2985 RMK AO2 PK WND 09035/0358 P0001 T01060078 TSNO
PATO 170353Z AUTO 09012G34KT 7SM -RA FEW015 BKN034 OVC041 11/08 A2985 RMK AO2 PK WND 14039/0255 SLP108 P0000 T01060078 TSNO